sensor_id;sensor_type;location;lat;lon;timestamp;temperature;humidity
64987;DHT22;67903;52.108;9.358;2023-04-15T00:00:55;6.50;78.60
64987;DHT22;67903;52.108;9.358;2023-04-15T00:03:23;6.50;78.40
64987;DHT22;67903;52.108;9.358;2023-04-15T00:05:50;6.50;78.00
64987;DHT22;67903;52.108;9.358;2023-04-15T00:08:17;6.50;78.00
64987;DHT22;67903;52.108;9.358;2023-04-15T00:10:45;6.50;78.20
64987;DHT22;67903;52.108;9.358;2023-04-15T00:13:12;6.40;78.30
64987;DHT22;67903;52.108;9.358;2023-04-15T00:15:39;6.40;78.40
64987;DHT22;67903;52.108;9.358;2023-04-15T00:18:06;6.40;78.60
64987;DHT22;67903;52.108;9.358;2023-04-15T00:20:35;6.40;78.70
64987;DHT22;67903;52.108;9.358;2023-04-15T00:23:02;6.50;78.70
64987;DHT22;67903;52.108;9.358;2023-04-15T00:25:30;6.50;78.20
64987;DHT22;67903;52.108;9.358;2023-04-15T00:27:57;6.50;78.20
64987;DHT22;67903;52.108;9.358;2023-04-15T00:30:24;6.50;78.30
64987;DHT22;67903;52.108;9.358;2023-04-15T00:32:52;6.50;78.50
64987;DHT22;67903;52.108;9.358;2023-04-15T00:35:20;6.40;78.60
64987;DHT22;67903;52.108;9.358;2023-04-15T00:37:48;6.40;78.50
64987;DHT22;67903;52.108;9.358;2023-04-15T00:40:17;6.40;78.40
64987;DHT22;67903;52.108;9.358;2023-04-15T00:42:45;6.40;78.50
64987;DHT22;67903;52.108;9.358;2023-04-15T00:45:12;6.30;78.80
64987;DHT22;67903;52.108;9.358;2023-04-15T00:47:43;6.40;78.40
64987;DHT22;67903;52.108;9.358;2023-04-15T00:50:10;6.30;78.60
64987;DHT22;67903;52.108;9.358;2023-04-15T00:52:38;6.40;78.70
64987;DHT22;67903;52.108;9.358;2023-04-15T00:55:06;6.40;78.50
64987;DHT22;67903;52.108;9.358;2023-04-15T00:57:34;6.30;78.80
64987;DHT22;67903;52.108;9.358;2023-04-15T01:00:02;6.40;78.50
64987;DHT22;67903;52.108;9.358;2023-04-15T01:02:30;6.40;78.40
64987;DHT22;67903;52.108;9.358;2023-04-15T01:04:58;6.40;78.30
64987;DHT22;67903;52.108;9.358;2023-04-15T01:07:25;6.40;78.30
64987;DHT22;67903;52.108;9.358;2023-04-15T01:09:52;6.40;78.50
64987;DHT22;67903;52.108;9.358;2023-04-15T01:12:19;6.40;78.40
64987;DHT22;67903;52.108;9.358;2023-04-15T01:14:47;6.40;78.70
64987;DHT22;67903;52.108;9.358;2023-04-15T01:17:13;6.30;78.90
64987;DHT22;67903;52.108;9.358;2023-04-15T01:19:40;6.30;78.90
64987;DHT22;67903;52.108;9.358;2023-04-15T01:22:08;6.40;78.60
64987;DHT22;67903;52.108;9.358;2023-04-15T01:24:37;6.40;78.70
64987;DHT22;67903;52.108;9.358;2023-04-15T01:27:05;6.30;79.10
64987;DHT22;67903;52.108;9.358;2023-04-15T01:29:34;6.20;79.50
64987;DHT22;67903;52.108;9.358;2023-04-15T01:32:01;6.20;79.50
64987;DHT22;67903;52.108;9.358;2023-04-15T01:34:28;6.20;79.60
64987;DHT22;67903;52.108;9.358;2023-04-15T01:36:55;6.10;80.00
64987;DHT22;67903;52.108;9.358;2023-04-15T01:39:22;6.10;80.00
64987;DHT22;67903;52.108;9.358;2023-04-15T01:41:48;6.20;79.90
64987;DHT22;67903;52.108;9.358;2023-04-15T01:44:15;6.20;79.80
64987;DHT22;67903;52.108;9.358;2023-04-15T01:46:42;6.30;79.30
64987;DHT22;67903;52.108;9.358;2023-04-15T01:49:09;6.30;79.40
64987;DHT22;67903;52.108;9.358;2023-04-15T01:51:36;6.40;79.20
64987;DHT22;67903;52.108;9.358;2023-04-15T01:54:03;6.30;79.50
64987;DHT22;67903;52.108;9.358;2023-04-15T01:56:30;6.20;79.60
64987;DHT22;67903;52.108;9.358;2023-04-15T01:58:57;6.20;79.90
64987;DHT22;67903;52.108;9.358;2023-04-15T02:01:26;6.10;80.20
64987;DHT22;67903;52.108;9.358;2023-04-15T02:03:52;6.10;80.30
64987;DHT22;67903;52.108;9.358;2023-04-15T02:06:19;6.10;80.50
64987;DHT22;67903;52.108;9.358;2023-04-15T02:08:47;6.10;80.30
64987;DHT22;67903;52.108;9.358;2023-04-15T02:11:13;6.10;80.50
64987;DHT22;67903;52.108;9.358;2023-04-15T02:13:41;6.20;80.40
64987;DHT22;67903;52.108;9.358;2023-04-15T02:16:17;6.20;80.40
64987;DHT22;67903;52.108;9.358;2023-04-15T02:18:45;6.20;80.40
64987;DHT22;67903;52.108;9.358;2023-04-15T02:21:13;6.20;80.50
64987;DHT22;67903;52.108;9.358;2023-04-15T02:23:39;6.20;80.60
64987;DHT22;67903;52.108;9.358;2023-04-15T02:26:06;6.20;80.40
64987;DHT22;67903;52.108;9.358;2023-04-15T02:28:34;6.30;80.40
64987;DHT22;67903;52.108;9.358;2023-04-15T02:31:07;6.30;80.10
64987;DHT22;67903;52.108;9.358;2023-04-15T02:33:35;6.30;79.90
64987;DHT22;67903;52.108;9.358;2023-04-15T02:36:03;6.40;79.80
64987;DHT22;67903;52.108;9.358;2023-04-15T02:38:30;6.30;79.70
64987;DHT22;67903;52.108;9.358;2023-04-15T02:40:57;6.30;79.60
64987;DHT22;67903;52.108;9.358;2023-04-15T02:43:24;6.40;79.50
64987;DHT22;67903;52.108;9.358;2023-04-15T02:45:51;6.40;79.20
64987;DHT22;67903;52.108;9.358;2023-04-15T02:48:19;6.40;79.20
64987;DHT22;67903;52.108;9.358;2023-04-15T02:50:47;6.50;79.20
64987;DHT22;67903;52.108;9.358;2023-04-15T02:53:15;6.50;78.90
64987;DHT22;67903;52.108;9.358;2023-04-15T02:55:43;6.60;78.80
64987;DHT22;67903;52.108;9.358;2023-04-15T02:58:09;6.50;78.60
64987;DHT22;67903;52.108;9.358;2023-04-15T03:00:36;6.50;78.70
64987;DHT22;67903;52.108;9.358;2023-04-15T03:03:04;6.50;78.70
64987;DHT22;67903;52.108;9.358;2023-04-15T03:05:31;6.40;79.00
64987;DHT22;67903;52.108;9.358;2023-04-15T03:08:00;6.40;79.30
64987;DHT22;67903;52.108;9.358;2023-04-15T03:10:27;6.40;79.30
64987;DHT22;67903;52.108;9.358;2023-04-15T03:12:54;6.50;79.30
64987;DHT22;67903;52.108;9.358;2023-04-15T03:15:22;6.50;79.50
64987;DHT22;67903;52.108;9.358;2023-04-15T03:17:51;6.50;79.40
64987;DHT22;67903;52.108;9.358;2023-04-15T03:20:18;6.50;79.50
64987;DHT22;67903;52.108;9.358;2023-04-15T03:22:46;6.50;79.30
64987;DHT22;67903;52.108;9.358;2023-04-15T03:25:13;6.60;79.40
64987;DHT22;67903;52.108;9.358;2023-04-15T03:27:41;6.60;79.60
64987;DHT22;67903;52.108;9.358;2023-04-15T03:30:09;6.60;79.40
64987;DHT22;67903;52.108;9.358;2023-04-15T03:32:38;6.60;79.50
64987;DHT22;67903;52.108;9.358;2023-04-15T03:35:06;6.70;79.70
64987;DHT22;67903;52.108;9.358;2023-04-15T03:37:33;6.60;79.70
64987;DHT22;67903;52.108;9.358;2023-04-15T03:40:01;6.70;79.70
64987;DHT22;67903;52.108;9.358;2023-04-15T03:42:27;6.70;79.50
64987;DHT22;67903;52.108;9.358;2023-04-15T03:44:54;6.70;79.60
64987;DHT22;67903;52.108;9.358;2023-04-15T03:47:21;6.60;79.90
64987;DHT22;67903;52.108;9.358;2023-04-15T03:49:48;6.60;80.00
64987;DHT22;67903;52.108;9.358;2023-04-15T03:52:15;6.60;80.30
64987;DHT22;67903;52.108;9.358;2023-04-15T03:54:42;6.70;80.00
64987;DHT22;67903;52.108;9.358;2023-04-15T03:57:09;6.60;80.20
64987;DHT22;67903;52.108;9.358;2023-04-15T03:59:35;6.60;80.10
64987;DHT22;67903;52.108;9.358;2023-04-15T04:02:02;6.70;80.10
64987;DHT22;67903;52.108;9.358;2023-04-15T04:04:29;6.70;80.40
64987;DHT22;67903;52.108;9.358;2023-04-15T04:06:56;6.60;80.70
64987;DHT22;67903;52.108;9.358;2023-04-15T04:09:22;6.60;80.50
64987;DHT22;67903;52.108;9.358;2023-04-15T04:11:49;6.60;80.60
64987;DHT22;67903;52.108;9.358;2023-04-15T04:14:16;6.60;80.60
64987;DHT22;67903;52.108;9.358;2023-04-15T04:16:42;6.60;80.80
64987;DHT22;67903;52.108;9.358;2023-04-15T04:19:10;6.60;80.70
64987;DHT22;67903;52.108;9.358;2023-04-15T04:21:39;6.50;81.10
64987;DHT22;67903;52.108;9.358;2023-04-15T04:24:06;6.40;81.30
64987;DHT22;67903;52.108;9.358;2023-04-15T04:26:32;6.50;81.30
64987;DHT22;67903;52.108;9.358;2023-04-15T04:28:59;6.50;81.20
64987;DHT22;67903;52.108;9.358;2023-04-15T04:31:26;6.50;81.20
64987;DHT22;67903;52.108;9.358;2023-04-15T04:33:53;6.50;81.20
64987;DHT22;67903;52.108;9.358;2023-04-15T04:36:20;6.50;81.20
64987;DHT22;67903;52.108;9.358;2023-04-15T04:38:47;6.50;81.30
64987;DHT22;67903;52.108;9.358;2023-04-15T04:41:13;6.50;81.10
64987;DHT22;67903;52.108;9.358;2023-04-15T04:43:40;6.60;81.40
64987;DHT22;67903;52.108;9.358;2023-04-15T04:46:07;6.60;81.10
64987;DHT22;67903;52.108;9.358;2023-04-15T04:48:34;6.60;81.10
64987;DHT22;67903;52.108;9.358;2023-04-15T04:51:01;6.70;80.80
64987;DHT22;67903;52.108;9.358;2023-04-15T04:53:27;6.70;80.60
64987;DHT22;67903;52.108;9.358;2023-04-15T04:55:54;6.60;80.80
64987;DHT22;67903;52.108;9.358;2023-04-15T04:58:21;6.60;80.80
64987;DHT22;67903;52.108;9.358;2023-04-15T05:00:48;6.70;80.80
64987;DHT22;67903;52.108;9.358;2023-04-15T05:03:14;6.70;80.80
64987;DHT22;67903;52.108;9.358;2023-04-15T05:05:42;6.60;81.20
64987;DHT22;67903;52.108;9.358;2023-04-15T05:08:08;6.60;81.70
64987;DHT22;67903;52.108;9.358;2023-04-15T05:10:35;6.60;82.00
64987;DHT22;67903;52.108;9.358;2023-04-15T05:13:02;6.60;81.80
64987;DHT22;67903;52.108;9.358;2023-04-15T05:15:29;6.60;82.10
64987;DHT22;67903;52.108;9.358;2023-04-15T05:17:56;6.60;82.20
64987;DHT22;67903;52.108;9.358;2023-04-15T05:20:23;6.50;82.90
64987;DHT22;67903;52.108;9.358;2023-04-15T05:22:49;6.50;83.20
64987;DHT22;67903;52.108;9.358;2023-04-15T05:25:16;6.40;83.50
64987;DHT22;67903;52.108;9.358;2023-04-15T05:27:43;6.40;84.00
64987;DHT22;67903;52.108;9.358;2023-04-15T05:30:10;6.50;84.30
64987;DHT22;67903;52.108;9.358;2023-04-15T05:32:39;6.40;84.40
64987;DHT22;67903;52.108;9.358;2023-04-15T05:35:06;6.40;84.70
64987;DHT22;67903;52.108;9.358;2023-04-15T05:37:34;6.50;85.30
64987;DHT22;67903;52.108;9.358;2023-04-15T05:40:01;6.50;85.40
64987;DHT22;67903;52.108;9.358;2023-04-15T05:42:27;6.40;86.10
64987;DHT22;67903;52.108;9.358;2023-04-15T05:44:54;6.50;86.40
64987;DHT22;67903;52.108;9.358;2023-04-15T05:47:21;6.60;85.70
64987;DHT22;67903;52.108;9.358;2023-04-15T05:49:48;6.50;85.20
64987;DHT22;67903;52.108;9.358;2023-04-15T05:52:15;6.60;85.20
64987;DHT22;67903;52.108;9.358;2023-04-15T05:54:42;6.60;84.80
64987;DHT22;67903;52.108;9.358;2023-04-15T05:57:09;6.60;84.60
64987;DHT22;67903;52.108;9.358;2023-04-15T05:59:35;6.50;85.10
64987;DHT22;67903;52.108;9.358;2023-04-15T06:02:02;6.50;85.20
64987;DHT22;67903;52.108;9.358;2023-04-15T06:04:29;6.50;85.60
64987;DHT22;67903;52.108;9.358;2023-04-15T06:06:56;6.50;85.30
64987;DHT22;67903;52.108;9.358;2023-04-15T06:09:23;6.50;85.70
64987;DHT22;67903;52.108;9.358;2023-04-15T06:11:51;6.40;85.80
64987;DHT22;67903;52.108;9.358;2023-04-15T06:14:17;6.50;85.80
64987;DHT22;67903;52.108;9.358;2023-04-15T06:16:44;6.40;86.10
64987;DHT22;67903;52.108;9.358;2023-04-15T06:19:11;6.40;86.20
64987;DHT22;67903;52.108;9.358;2023-04-15T06:21:38;6.40;86.30
64987;DHT22;67903;52.108;9.358;2023-04-15T06:24:04;6.50;86.30
64987;DHT22;67903;52.108;9.358;2023-04-15T06:26:32;6.40;86.30
64987;DHT22;67903;52.108;9.358;2023-04-15T06:28:58;6.40;86.40
64987;DHT22;67903;52.108;9.358;2023-04-15T06:31:26;6.40;86.60
64987;DHT22;67903;52.108;9.358;2023-04-15T06:33:53;6.40;86.70
64987;DHT22;67903;52.108;9.358;2023-04-15T06:36:20;6.40;87.10
64987;DHT22;67903;52.108;9.358;2023-04-15T06:38:47;6.40;86.80
64987;DHT22;67903;52.108;9.358;2023-04-15T06:41:13;6.40;86.60
64987;DHT22;67903;52.108;9.358;2023-04-15T06:43:41;6.40;86.80
64987;DHT22;67903;52.108;9.358;2023-04-15T06:46:08;6.40;86.70
64987;DHT22;67903;52.108;9.358;2023-04-15T06:48:34;6.40;87.50
64987;DHT22;67903;52.108;9.358;2023-04-15T06:51:01;6.40;87.70
64987;DHT22;67903;52.108;9.358;2023-04-15T06:53:29;6.40;87.90
64987;DHT22;67903;52.108;9.358;2023-04-15T06:55:56;6.40;87.80
64987;DHT22;67903;52.108;9.358;2023-04-15T06:58:23;6.40;87.80
64987;DHT22;67903;52.108;9.358;2023-04-15T07:00:49;6.40;87.90
64987;DHT22;67903;52.108;9.358;2023-04-15T07:03:16;6.40;88.20
64987;DHT22;67903;52.108;9.358;2023-04-15T07:05:43;6.30;88.50
64987;DHT22;67903;52.108;9.358;2023-04-15T07:08:10;6.30;88.70
64987;DHT22;67903;52.108;9.358;2023-04-15T07:10:37;6.30;89.20
64987;DHT22;67903;52.108;9.358;2023-04-15T07:13:04;6.30;89.50
64987;DHT22;67903;52.108;9.358;2023-04-15T07:15:32;6.30;89.80
64987;DHT22;67903;52.108;9.358;2023-04-15T07:17:59;6.30;90.20
64987;DHT22;67903;52.108;9.358;2023-04-15T07:20:26;6.20;90.40
64987;DHT22;67903;52.108;9.358;2023-04-15T07:22:53;6.20;90.70
64987;DHT22;67903;52.108;9.358;2023-04-15T07:25:20;6.10;91.00
64987;DHT22;67903;52.108;9.358;2023-04-15T07:27:47;6.20;91.50
64987;DHT22;67903;52.108;9.358;2023-04-15T07:30:14;6.20;91.80
64987;DHT22;67903;52.108;9.358;2023-04-15T07:32:41;6.20;92.20
64987;DHT22;67903;52.108;9.358;2023-04-15T07:35:08;6.20;92.20
64987;DHT22;67903;52.108;9.358;2023-04-15T07:37:36;6.20;92.20
64987;DHT22;67903;52.108;9.358;2023-04-15T07:40:03;6.20;91.90
64987;DHT22;67903;52.108;9.358;2023-04-15T07:42:31;6.30;91.70
64987;DHT22;67903;52.108;9.358;2023-04-15T07:44:58;6.30;91.70
64987;DHT22;67903;52.108;9.358;2023-04-15T07:47:25;6.30;91.40
64987;DHT22;67903;52.108;9.358;2023-04-15T07:49:52;6.30;91.30
64987;DHT22;67903;52.108;9.358;2023-04-15T07:52:19;6.30;91.70
64987;DHT22;67903;52.108;9.358;2023-04-15T07:54:46;6.30;91.60
64987;DHT22;67903;52.108;9.358;2023-04-15T07:57:12;6.20;92.10
64987;DHT22;67903;52.108;9.358;2023-04-15T07:59:39;6.20;91.90
64987;DHT22;67903;52.108;9.358;2023-04-15T08:02:06;6.30;91.90
64987;DHT22;67903;52.108;9.358;2023-04-15T08:04:33;6.30;91.90
64987;DHT22;67903;52.108;9.358;2023-04-15T08:07:01;6.30;92.10
64987;DHT22;67903;52.108;9.358;2023-04-15T08:09:28;6.30;92.30
64987;DHT22;67903;52.108;9.358;2023-04-15T08:11:54;6.30;92.80
64987;DHT22;67903;52.108;9.358;2023-04-15T08:14:23;6.30;93.10
64987;DHT22;67903;52.108;9.358;2023-04-15T08:16:50;6.30;93.70
64987;DHT22;67903;52.108;9.358;2023-04-15T08:19:17;6.30;94.00
64987;DHT22;67903;52.108;9.358;2023-04-15T08:21:43;6.30;94.10
64987;DHT22;67903;52.108;9.358;2023-04-15T08:24:10;6.30;94.10
64987;DHT22;67903;52.108;9.358;2023-04-15T08:26:37;6.30;94.20
64987;DHT22;67903;52.108;9.358;2023-04-15T08:29:04;6.30;94.20
64987;DHT22;67903;52.108;9.358;2023-04-15T08:31:31;6.40;94.10
64987;DHT22;67903;52.108;9.358;2023-04-15T08:33:58;6.40;94.10
64987;DHT22;67903;52.108;9.358;2023-04-15T08:36:25;6.40;93.70
64987;DHT22;67903;52.108;9.358;2023-04-15T08:38:52;6.40;92.80
64987;DHT22;67903;52.108;9.358;2023-04-15T08:41:23;6.40;92.30
64987;DHT22;67903;52.108;9.358;2023-04-15T08:43:53;6.40;92.10
64987;DHT22;67903;52.108;9.358;2023-04-15T08:46:20;6.40;91.90
64987;DHT22;67903;52.108;9.358;2023-04-15T08:48:48;6.50;91.40
64987;DHT22;67903;52.108;9.358;2023-04-15T08:51:16;6.40;90.80
64987;DHT22;67903;52.108;9.358;2023-04-15T08:53:43;6.50;90.70
64987;DHT22;67903;52.108;9.358;2023-04-15T08:56:13;6.50;91.00
64987;DHT22;67903;52.108;9.358;2023-04-15T08:58:43;6.50;91.30
64987;DHT22;67903;52.108;9.358;2023-04-15T09:01:13;6.40;90.50
64987;DHT22;67903;52.108;9.358;2023-04-15T09:03:41;6.50;91.50
64987;DHT22;67903;52.108;9.358;2023-04-15T09:06:08;6.60;91.30
64987;DHT22;67903;52.108;9.358;2023-04-15T09:08:34;6.60;90.90
64987;DHT22;67903;52.108;9.358;2023-04-15T09:11:02;6.70;92.50
64987;DHT22;67903;52.108;9.358;2023-04-15T09:13:29;6.70;93.00
64987;DHT22;67903;52.108;9.358;2023-04-15T09:15:56;6.70;92.80
64987;DHT22;67903;52.108;9.358;2023-04-15T09:18:31;6.70;92.70
64987;DHT22;67903;52.108;9.358;2023-04-15T09:21:09;6.80;91.70
64987;DHT22;67903;52.108;9.358;2023-04-15T09:23:38;6.80;91.00
64987;DHT22;67903;52.108;9.358;2023-04-15T09:26:05;6.90;90.50
64987;DHT22;67903;52.108;9.358;2023-04-15T09:28:32;6.90;90.40
64987;DHT22;67903;52.108;9.358;2023-04-15T09:31:06;6.90;90.30
64987;DHT22;67903;52.108;9.358;2023-04-15T09:33:33;6.90;90.30
64987;DHT22;67903;52.108;9.358;2023-04-15T09:36:02;6.90;90.30
64987;DHT22;67903;52.108;9.358;2023-04-15T09:38:30;6.90;90.40
64987;DHT22;67903;52.108;9.358;2023-04-15T09:40:58;6.90;91.20
64987;DHT22;67903;52.108;9.358;2023-04-15T09:43:38;6.90;91.30
64987;DHT22;67903;52.108;9.358;2023-04-15T09:46:05;6.90;91.50
64987;DHT22;67903;52.108;9.358;2023-04-15T09:48:32;6.90;91.60
64987;DHT22;67903;52.108;9.358;2023-04-15T09:50:59;7.00;91.20
64987;DHT22;67903;52.108;9.358;2023-04-15T09:53:27;7.00;90.90
64987;DHT22;67903;52.108;9.358;2023-04-15T09:55:58;7.00;90.80
64987;DHT22;67903;52.108;9.358;2023-04-15T09:58:32;7.00;90.60
64987;DHT22;67903;52.108;9.358;2023-04-15T10:01:01;7.00;91.00
64987;DHT22;67903;52.108;9.358;2023-04-15T10:03:30;7.00;91.40
64987;DHT22;67903;52.108;9.358;2023-04-15T10:05:59;7.10;91.20
64987;DHT22;67903;52.108;9.358;2023-04-15T10:08:30;7.10;91.00
64987;DHT22;67903;52.108;9.358;2023-04-15T10:11:00;7.10;91.00
64987;DHT22;67903;52.108;9.358;2023-04-15T10:13:30;7.20;91.10
64987;DHT22;67903;52.108;9.358;2023-04-15T10:16:09;7.20;90.50
64987;DHT22;67903;52.108;9.358;2023-04-15T10:18:41;7.20;90.30
64987;DHT22;67903;52.108;9.358;2023-04-15T10:21:08;7.30;90.00
64987;DHT22;67903;52.108;9.358;2023-04-15T10:23:35;7.20;90.00
64987;DHT22;67903;52.108;9.358;2023-04-15T10:26:04;7.20;90.10
64987;DHT22;67903;52.108;9.358;2023-04-15T10:28:31;7.40;90.10
64987;DHT22;67903;52.108;9.358;2023-04-15T10:30:58;7.50;89.70
64987;DHT22;67903;52.108;9.358;2023-04-15T10:33:26;7.50;89.20
64987;DHT22;67903;52.108;9.358;2023-04-15T10:35:54;7.60;88.30
64987;DHT22;67903;52.108;9.358;2023-04-15T10:38:39;7.50;88.20
64987;DHT22;67903;52.108;9.358;2023-04-15T10:41:15;7.50;87.90
64987;DHT22;67903;52.108;9.358;2023-04-15T10:43:59;7.50;87.80
64987;DHT22;67903;52.108;9.358;2023-04-15T10:46:38;7.50;87.90
64987;DHT22;67903;52.108;9.358;2023-04-15T10:49:11;7.50;88.20
64987;DHT22;67903;52.108;9.358;2023-04-15T10:51:46;7.60;88.00
64987;DHT22;67903;52.108;9.358;2023-04-15T10:59:34;7.60;87.90
64987;DHT22;67903;52.108;9.358;2023-04-15T11:02:06;7.70;87.90
64987;DHT22;67903;52.108;9.358;2023-04-15T11:04:58;7.80;87.20
64987;DHT22;67903;52.108;9.358;2023-04-15T11:12:40;7.70;87.20
64987;DHT22;67903;52.108;9.358;2023-04-15T11:17:52;7.80;87.40
64987;DHT22;67903;52.108;9.358;2023-04-15T11:20:19;7.80;88.00
64987;DHT22;67903;52.108;9.358;2023-04-15T11:22:50;7.90;87.20
64987;DHT22;67903;52.108;9.358;2023-04-15T11:25:34;8.00;87.10
64987;DHT22;67903;52.108;9.358;2023-04-15T11:28:04;7.90;87.10
64987;DHT22;67903;52.108;9.358;2023-04-15T11:30:33;8.00;86.80
64987;DHT22;67903;52.108;9.358;2023-04-15T11:33:05;8.00;86.90
64987;DHT22;67903;52.108;9.358;2023-04-15T11:35:32;8.00;87.30
64987;DHT22;67903;52.108;9.358;2023-04-15T11:38:04;8.00;87.30
64987;DHT22;67903;52.108;9.358;2023-04-15T11:40:31;8.00;87.10
64987;DHT22;67903;52.108;9.358;2023-04-15T11:45:31;8.00;87.10
64987;DHT22;67903;52.108;9.358;2023-04-15T11:48:08;8.00;87.20
64987;DHT22;67903;52.108;9.358;2023-04-15T11:50:37;8.00;87.30
64987;DHT22;67903;52.108;9.358;2023-04-15T11:53:07;8.00;87.60
64987;DHT22;67903;52.108;9.358;2023-04-15T11:55:48;8.00;87.90
64987;DHT22;67903;52.108;9.358;2023-04-15T11:58:17;8.00;87.50
64987;DHT22;67903;52.108;9.358;2023-04-15T12:00:52;8.10;87.70
64987;DHT22;67903;52.108;9.358;2023-04-15T12:03:30;8.10;87.70
64987;DHT22;67903;52.108;9.358;2023-04-15T12:06:24;8.10;88.00
64987;DHT22;67903;52.108;9.358;2023-04-15T12:14:28;8.20;87.70
64987;DHT22;67903;52.108;9.358;2023-04-15T12:17:00;8.20;87.90
64987;DHT22;67903;52.108;9.358;2023-04-15T12:22:02;8.20;88.20
64987;DHT22;67903;52.108;9.358;2023-04-15T12:24:33;8.20;88.20
64987;DHT22;67903;52.108;9.358;2023-04-15T12:27:02;8.30;88.00
64987;DHT22;67903;52.108;9.358;2023-04-15T12:29:30;8.30;88.10
64987;DHT22;67903;52.108;9.358;2023-04-15T12:32:11;8.30;88.00
64987;DHT22;67903;52.108;9.358;2023-04-15T12:37:10;8.40;87.70
64987;DHT22;67903;52.108;9.358;2023-04-15T12:39:39;8.40;88.00
64987;DHT22;67903;52.108;9.358;2023-04-15T12:42:07;8.40;88.20
64987;DHT22;67903;52.108;9.358;2023-04-15T12:44:35;8.40;88.30
64987;DHT22;67903;52.108;9.358;2023-04-15T12:47:02;8.40;88.50
64987;DHT22;67903;52.108;9.358;2023-04-15T12:49:30;8.40;88.20
64987;DHT22;67903;52.108;9.358;2023-04-15T12:51:59;8.40;88.70
64987;DHT22;67903;52.108;9.358;2023-04-15T12:54:27;8.40;88.50
64987;DHT22;67903;52.108;9.358;2023-04-15T12:56:55;8.30;88.70
64987;DHT22;67903;52.108;9.358;2023-04-15T12:59:22;8.40;88.80
64987;DHT22;67903;52.108;9.358;2023-04-15T13:01:52;8.30;88.70
64987;DHT22;67903;52.108;9.358;2023-04-15T13:04:20;8.40;89.00
64987;DHT22;67903;52.108;9.358;2023-04-15T13:06:47;8.40;88.90
64987;DHT22;67903;52.108;9.358;2023-04-15T13:09:14;8.40;88.90
64987;DHT22;67903;52.108;9.358;2023-04-15T13:11:41;8.40;89.00
64987;DHT22;67903;52.108;9.358;2023-04-15T13:14:08;8.50;89.10
64987;DHT22;67903;52.108;9.358;2023-04-15T13:16:37;8.40;89.10
64987;DHT22;67903;52.108;9.358;2023-04-15T13:19:04;8.40;89.30
64987;DHT22;67903;52.108;9.358;2023-04-15T13:21:31;8.50;89.30
64987;DHT22;67903;52.108;9.358;2023-04-15T13:24:02;8.50;89.50
64987;DHT22;67903;52.108;9.358;2023-04-15T13:26:30;8.50;89.40
64987;DHT22;67903;52.108;9.358;2023-04-15T13:28:57;8.50;89.40
64987;DHT22;67903;52.108;9.358;2023-04-15T13:31:24;8.50;89.50
64987;DHT22;67903;52.108;9.358;2023-04-15T13:33:51;8.50;89.60
64987;DHT22;67903;52.108;9.358;2023-04-15T13:36:17;8.60;89.70
64987;DHT22;67903;52.108;9.358;2023-04-15T13:38:44;8.60;89.70
64987;DHT22;67903;52.108;9.358;2023-04-15T13:41:13;8.60;89.50
64987;DHT22;67903;52.108;9.358;2023-04-15T13:43:39;8.60;89.40
64987;DHT22;67903;52.108;9.358;2023-04-15T13:46:07;8.60;89.80
64987;DHT22;67903;52.108;9.358;2023-04-15T13:48:34;8.60;89.70
64987;DHT22;67903;52.108;9.358;2023-04-15T13:51:01;8.60;89.90
64987;DHT22;67903;52.108;9.358;2023-04-15T13:53:28;8.50;90.20
64987;DHT22;67903;52.108;9.358;2023-04-15T13:56:05;8.60;90.50
64987;DHT22;67903;52.108;9.358;2023-04-15T13:58:32;8.60;90.50
64987;DHT22;67903;52.108;9.358;2023-04-15T14:00:59;8.60;90.40
64987;DHT22;67903;52.108;9.358;2023-04-15T14:03:27;8.70;90.10
64987;DHT22;67903;52.108;9.358;2023-04-15T14:05:54;8.70;90.30
64987;DHT22;67903;52.108;9.358;2023-04-15T14:08:23;8.70;90.30
64987;DHT22;67903;52.108;9.358;2023-04-15T14:10:50;8.70;90.20
64987;DHT22;67903;52.108;9.358;2023-04-15T14:13:17;8.60;90.00
64987;DHT22;67903;52.108;9.358;2023-04-15T14:15:45;8.70;90.20
64987;DHT22;67903;52.108;9.358;2023-04-15T14:18:12;8.70;90.30
64987;DHT22;67903;52.108;9.358;2023-04-15T14:20:39;8.70;90.30
64987;DHT22;67903;52.108;9.358;2023-04-15T14:23:06;8.80;90.40
64987;DHT22;67903;52.108;9.358;2023-04-15T14:25:33;8.80;90.10
64987;DHT22;67903;52.108;9.358;2023-04-15T14:28:00;8.80;90.30
64987;DHT22;67903;52.108;9.358;2023-04-15T14:30:27;8.90;90.00
64987;DHT22;67903;52.108;9.358;2023-04-15T14:32:54;8.80;90.00
64987;DHT22;67903;52.108;9.358;2023-04-15T14:35:21;8.90;90.20
64987;DHT22;67903;52.108;9.358;2023-04-15T14:37:50;8.90;90.20
64987;DHT22;67903;52.108;9.358;2023-04-15T14:40:17;8.90;90.00
64987;DHT22;67903;52.108;9.358;2023-04-15T14:42:45;8.90;90.20
64987;DHT22;67903;52.108;9.358;2023-04-15T14:45:12;8.90;90.30
64987;DHT22;67903;52.108;9.358;2023-04-15T14:47:38;8.90;89.80
64987;DHT22;67903;52.108;9.358;2023-04-15T14:50:05;8.90;90.30
64987;DHT22;67903;52.108;9.358;2023-04-15T14:52:32;9.00;90.00
64987;DHT22;67903;52.108;9.358;2023-04-15T14:55:06;9.00;90.00
64987;DHT22;67903;52.108;9.358;2023-04-15T14:57:33;9.00;90.00
64987;DHT22;67903;52.108;9.358;2023-04-15T14:59:59;9.00;89.70
64987;DHT22;67903;52.108;9.358;2023-04-15T15:02:26;9.00;90.00
64987;DHT22;67903;52.108;9.358;2023-04-15T15:05:05;9.10;89.40
64987;DHT22;67903;52.108;9.358;2023-04-15T15:07:32;9.20;89.70
64987;DHT22;67903;52.108;9.358;2023-04-15T15:09:59;9.50;89.30
64987;DHT22;67903;52.108;9.358;2023-04-15T15:12:26;9.80;88.20
64987;DHT22;67903;52.108;9.358;2023-04-15T15:14:54;10.00;87.20
64987;DHT22;67903;52.108;9.358;2023-04-15T15:17:21;10.10;86.60
64987;DHT22;67903;52.108;9.358;2023-04-15T15:19:48;10.30;85.80
64987;DHT22;67903;52.108;9.358;2023-04-15T15:22:15;10.50;85.60
64987;DHT22;67903;52.108;9.358;2023-04-15T15:24:44;10.50;85.00
64987;DHT22;67903;52.108;9.358;2023-04-15T15:27:11;10.50;85.30
64987;DHT22;67903;52.108;9.358;2023-04-15T15:29:38;10.50;85.30
64987;DHT22;67903;52.108;9.358;2023-04-15T15:32:05;10.50;85.20
64987;DHT22;67903;52.108;9.358;2023-04-15T15:34:32;10.50;84.70
64987;DHT22;67903;52.108;9.358;2023-04-15T15:36:59;10.50;85.20
64987;DHT22;67903;52.108;9.358;2023-04-15T15:39:26;10.60;85.00
64987;DHT22;67903;52.108;9.358;2023-04-15T15:41:53;11.00;85.00
64987;DHT22;67903;52.108;9.358;2023-04-15T15:44:20;11.70;83.00
64987;DHT22;67903;52.108;9.358;2023-04-15T15:46:48;12.50;79.70
64987;DHT22;67903;52.108;9.358;2023-04-15T15:49:15;12.60;77.80
64987;DHT22;67903;52.108;9.358;2023-04-15T15:51:42;12.20;78.00
64987;DHT22;67903;52.108;9.358;2023-04-15T15:54:09;11.70;79.30
64987;DHT22;67903;52.108;9.358;2023-04-15T15:56:35;11.20;81.10
64987;DHT22;67903;52.108;9.358;2023-04-15T15:59:04;10.90;82.60
64987;DHT22;67903;52.108;9.358;2023-04-15T16:01:31;10.70;83.20
64987;DHT22;67903;52.108;9.358;2023-04-15T16:03:58;10.50;84.00
64987;DHT22;67903;52.108;9.358;2023-04-15T16:06:25;10.30;84.30
64987;DHT22;67903;52.108;9.358;2023-04-15T16:08:52;10.20;85.00
64987;DHT22;67903;52.108;9.358;2023-04-15T16:11:19;10.10;85.20
64987;DHT22;67903;52.108;9.358;2023-04-15T16:13:46;10.00;85.60
64987;DHT22;67903;52.108;9.358;2023-04-15T16:16:13;10.00;85.90